Orbital elements of FENGYUN 1C DEB
| Launched | 9 May 1999 |
| Flight ended | – |
| Launch site | Taiyuan Space Center, PRC |
| Owner | People's Republic of China |
| NORAD ID | 31324 |
| Date fetched |
Epoch osculation |
Inc. [°] |
Ecc. | RA asc node [hr] |
Arg Peri. [°] |
Mean anom [°] |
Mean motion [rev/day] |
Abs. mag |
| Date fetched |
Epoch osculation |
Inc. [°] |
Ecc. | RA asc node [hr] |
Arg Peri. [°] |
Mean anom [°] |
Mean motion [rev/day] |
Abs. mag |
| 2026 May 08 17:57 | 2026 May 04 13:04:03 | 99.1307 | 0.00488 | 3.6122 | 260.7756 | 98.7898 | 14.14790 | – |
| 2026 May 07 17:58 | 2026 May 04 13:04:03 | 99.1307 | 0.00488 | 3.6122 | 260.7756 | 98.7898 | 14.14790 | – |
| 2026 May 06 17:57 | 2026 May 04 13:04:03 | 99.1307 | 0.00488 | 3.6122 | 260.7756 | 98.7898 | 14.14790 | – |
| 2026 May 05 17:57 | 2026 May 04 13:04:03 | 99.1307 | 0.00488 | 3.6122 | 260.7756 | 98.7898 | 14.14790 | – |
| 2026 May 04 17:57 | 2026 Apr 29 17:39:03 | 99.1307 | 0.00488 | 3.2844 | 274.6565 | 98.7898 | 14.14790 | – |
| 2026 May 03 17:57 | 2026 Apr 29 17:39:03 | 99.1307 | 0.00488 | 3.2844 | 274.6565 | 98.7898 | 14.14790 | – |
| 2026 May 02 17:57 | 2026 Apr 29 17:39:03 | 99.1307 | 0.00488 | 3.2844 | 274.6565 | 98.7898 | 14.14790 | – |
| 2026 May 01 17:56 | 2026 Apr 29 17:39:03 | 99.1307 | 0.00488 | 3.2844 | 274.6565 | 98.7898 | 14.14790 | – |
| 2026 Apr 30 17:56 | 2026 Apr 29 17:39:03 | 99.1307 | 0.00488 | 3.2844 | 274.6565 | 98.7898 | 14.14790 | – |
| 2026 Apr 29 17:57 | 2026 Apr 23 13:59:06 | 99.1300 | 0.00490 | 2.8649 | 292.3631 | 98.7898 | 14.14790 | – |
| 2026 Apr 28 17:56 | 2026 Apr 23 13:59:06 | 99.1300 | 0.00490 | 2.8649 | 292.3631 | 98.7898 | 14.14790 | – |
| 2026 Apr 27 17:58 | 2026 Apr 23 13:59:06 | 99.1300 | 0.00490 | 2.8649 | 292.3631 | 98.7898 | 14.14790 | – |
| 2026 Apr 26 17:58 | 2026 Apr 23 13:59:06 | 99.1300 | 0.00490 | 2.8649 | 292.3631 | 98.7898 | 14.14790 | – |
| 2026 Apr 25 17:58 | 2026 Apr 23 13:59:06 | 99.1300 | 0.00490 | 2.8649 | 292.3631 | 98.7898 | 14.14790 | – |
| 2026 Apr 24 17:59 | 2026 Apr 23 13:59:06 | 99.1300 | 0.00490 | 2.8649 | 292.3631 | 98.7898 | 14.14790 | – |
| 2026 Apr 23 17:57 | 2026 Apr 18 13:28:35 | 99.1295 | 0.00492 | 2.5226 | 306.8165 | 98.7898 | 14.14790 | – |
| 2026 Apr 22 17:57 | 2026 Apr 18 13:28:35 | 99.1295 | 0.00492 | 2.5226 | 306.8165 | 98.7898 | 14.14790 | – |
| 2026 Apr 21 17:57 | 2026 Apr 18 13:28:35 | 99.1295 | 0.00492 | 2.5226 | 306.8165 | 98.7898 | 14.14790 | – |
| 2026 Apr 20 17:57 | 2026 Apr 18 13:28:35 | 99.1295 | 0.00492 | 2.5226 | 306.8165 | 98.7898 | 14.14790 | – |
| 2026 Apr 19 17:58 | 2026 Apr 18 13:28:35 | 99.1295 | 0.00492 | 2.5226 | 306.8165 | 98.7898 | 14.14790 | – |
| 2026 Apr 18 17:56 | 2026 Apr 13 06:10:41 | 99.1295 | 0.00493 | 2.1610 | 321.9430 | 98.7898 | 14.14790 | – |
| 2026 Apr 16 17:57 | 2026 Apr 13 06:10:41 | 99.1295 | 0.00493 | 2.1610 | 321.9430 | 98.7898 | 14.14790 | – |
| 2026 Apr 14 17:57 | 2026 Apr 13 06:10:41 | 99.1295 | 0.00493 | 2.1610 | 321.9430 | 98.7898 | 14.14790 | – |
| 2026 Apr 13 17:57 | 2026 Apr 13 06:10:41 | 99.1295 | 0.00493 | 2.1610 | 321.9430 | 98.7898 | 14.14790 | – |
| 2026 Apr 12 17:57 | 2026 Apr 08 05:40:09 | 99.1292 | 0.00496 | 1.8188 | 336.1667 | 98.7898 | 14.14790 | – |
| 2026 Apr 11 17:57 | 2026 Apr 08 05:40:09 | 99.1292 | 0.00496 | 1.8188 | 336.1667 | 98.7898 | 14.14790 | – |